Terminal Aerodrome Forecast
Issued by NWS Springfield, MO

Home | Current Version | Previous Version | Text Only | Print | Product List | Glossary On
Versions: 1 2 3 4 5 6 7 8 9 10 11 12 13 14 15 16 17 18 19 20 21 22 23
765
FTUS43 KSGF 251351 AAB
TAFSGF
TAF AMD
KSGF 251351Z 2514/2612 14012KT 6SM -SHRA VCTS SCT020 OVC050CB
      TEMPO 2514/2517 2SM TSRA OVC020CB
     FM251700 26007KT 6SM -SHRA OVC045
     FM252000 27010KT P6SM VCTS OVC020CB
     FM260000 27008KT P6SM OVC010
     FM260700 23006KT 4SM BR OVC004=

USA.gov is the U.S. government's official web portal to all federal, state and local government web resources and services.